| time (UTC) | temp F | wind direction | speed MPH | gust MPH | rain 1hr in | rain 24hr in | rain mn in | humidity % | barometer mb |
| 20260510230517 | 86 | 313 | 3.0 | 5.0 | 0.00 | 0.02 | 0.02 | 63 | 1014.8 |
| 20260510225518 | 86 | 321 | 3.0 | 7.0 | 0.00 | 0.02 | 0.02 | 63 | 1014.7 |
| 20260510224517 | 87 | 325 | 3.0 | 5.0 | 0.00 | 0.02 | 0.02 | 64 | 1014.8 |
| 20260510223518 | 87 | 324 | 3.0 | 5.0 | 0.00 | 0.02 | 0.02 | 63 | 1014.9 |
| 20260510222518 | 87 | 294 | 4.0 | 7.0 | 0.00 | 0.02 | 0.02 | 63 | 1014.9 |
| 20260510221518 | 87 | 318 | 3.0 | 6.0 | 0.00 | 0.02 | 0.02 | 63 | 1014.8 |
| 20260510220518 | 89 | 306 | 2.0 | 4.0 | 0.00 | 0.03 | 0.02 | 59 | 1014.9 |
| 20260510215515 | 89 | 315 | 3.0 | 5.0 | 0.00 | 0.05 | 0.02 | 60 | 1014.9 |
| 20260510214516 | 88 | 319 | 3.0 | 5.0 | 0.00 | 0.05 | 0.02 | 59 | 1015.0 |
| 20260510213515 | 88 | 290 | 3.0 | 5.0 | 0.00 | 0.05 | 0.02 | 58 | 1015.0 |
| 20260510212516 | 87 | 325 | 3.0 | 4.0 | 0.00 | 0.05 | 0.02 | 57 | 1015.1 |
| 20260510211536 | 86 | 261 | 2.0 | 3.0 | 0.00 | 0.05 | 0.02 | 59 | 1015.1 |
| 20260510210516 | 86 | 276 | 3.0 | 4.0 | 0.00 | 0.05 | 0.02 | 58 | 1015.1 |
| 20260510205516 | 86 | 273 | 1.0 | 2.0 | 0.00 | 0.05 | 0.02 | 61 | 1015.2 |
| 20260510204517 | 86 | 251 | 1.0 | 2.0 | 0.00 | 0.05 | 0.02 | 62 | 1015.2 |
| 20260510203517 | 84 | 160 | 1.0 | 3.0 | 0.00 | 0.05 | 0.02 | 65 | 1015.3 |
| 20260510202517 | 83 | 279 | 2.0 | 4.0 | 0.00 | 0.05 | 0.02 | 65 | 1015.5 |
| 20260510201517 | 83 | 326 | 2.0 | 4.0 | 0.02 | 0.05 | 0.02 | 65 | 1015.5 |
| 20260510200517 | 82 | 261 | 1.0 | 2.0 | 0.02 | 0.05 | 0.02 | 73 | 1015.8 |
| 20260510195517 | 82 | 308 | 2.0 | 3.0 | 0.02 | 0.05 | 0.02 | 69 | 1015.8 |
| 20260510194538 | 82 | 252 | 2.0 | 4.0 | 0.02 | 0.05 | 0.02 | 72 | 1015.7 |
| 20260510193518 | 82 | 330 | 4.0 | 6.0 | 0.02 | 0.05 | 0.02 | 71 | 1015.4 |
| 20260510192518 | 83 | 324 | 2.0 | 4.0 | 0.02 | 0.05 | 0.02 | 72 | 1015.3 |
| 20260510191540 | 84 | 335 | 3.0 | 5.0 | 0.00 | 0.03 | 0.00 | 66 | 1015.5 |
| 20260510190518 | 84 | 317 | 3.0 | 5.0 | 0.00 | 0.03 | 0.00 | 67 | 1015.3 |
| 20260510185536 | 86 | 324 | 5.0 | 8.0 | 0.00 | 0.03 | 0.00 | 64 | 1015.3 |
| 20260510184516 | 91 | 314 | 4.0 | 7.0 | 0.00 | 0.03 | 0.00 | 61 | 1015.3 |
| 20260510183516 | 94 | 165 | 2.0 | 6.0 | 0.00 | 0.03 | 0.00 | 50 | 1015.1 |
| 20260510182516 | 95 | 212 | 3.0 | 7.0 | 0.00 | 0.03 | 0.00 | 49 | 1015.2 |
| 20260510181556 | 94 | 277 | 4.0 | 7.0 | 0.00 | 0.03 | 0.00 | 50 | 1015.2 |
| 20260510180516 | 94 | 264 | 4.0 | 8.0 | 0.00 | 0.03 | 0.00 | 51 | 1015.3 |
| 20260510175517 | 94 | 264 | 2.0 | 5.0 | 0.00 | 0.03 | 0.00 | 52 | 1015.4 |
| 20260510174516 | 93 | 220 | 2.0 | 3.0 | 0.00 | 0.03 | 0.00 | 53 | 1015.6 |
| 20260510173517 | 93 | 192 | 1.0 | 4.0 | 0.00 | 0.03 | 0.00 | 53 | 1015.7 |
| 20260510172517 | 94 | 244 | 3.0 | 6.0 | 0.00 | 0.03 | 0.00 | 52 | 1015.9 |
| 20260510171517 | 94 | 212 | 3.0 | 6.0 | 0.00 | 0.03 | 0.00 | 52 | 1016.0 |
| 20260510170517 | 92 | 151 | 1.0 | 2.0 | 0.00 | 0.03 | 0.00 | 54 | 1016.1 |
| 20260510165518 | 92 | 292 | 2.0 | 5.0 | 0.00 | 0.03 | 0.00 | 54 | 1016.2 |
| 20260510164517 | 92 | 243 | 3.0 | 6.0 | 0.00 | 0.03 | 0.00 | 53 | 1016.4 |
| 20260510163518 | 92 | 261 | 4.0 | 7.0 | 0.00 | 0.03 | 0.00 | 54 | 1016.5 |
| 20260510162518 | 91 | 258 | 3.0 | 6.0 | 0.00 | 0.03 | 0.00 | 55 | 1016.6 |
| 20260510161518 | 90 | 233 | 2.0 | 3.0 | 0.00 | 0.03 | 0.00 | 58 | 1016.7 |
| 20260510160535 | 90 | 236 | 3.0 | 6.0 | 0.00 | 0.03 | 0.00 | 59 | 1016.7 |
| 20260510155515 | 89 | 301 | 2.0 | 5.0 | 0.00 | 0.03 | 0.00 | 61 | 1016.6 |
| 20260510154515 | 89 | 229 | 3.0 | 5.0 | 0.00 | 0.03 | 0.00 | 59 | 1016.7 |
| 20260510153538 | 88 | 228 | 3.0 | 5.0 | 0.00 | 0.03 | 0.00 | 61 | 1016.8 |
| 20260510152516 | 87 | 278 | 3.0 | 4.0 | 0.00 | 0.03 | 0.00 | 61 | 1016.7 |
| 20260510151516 | 86 | 283 | 2.0 | 4.0 | 0.00 | 0.03 | 0.00 | 65 | 1016.7 |
| 20260510150516 | 86 | 284 | 2.0 | 5.0 | 0.00 | 0.03 | 0.00 | 65 | 1016.7 |
| 20260510145516 | 87 | 279 | 2.0 | 3.0 | 0.00 | 0.03 | 0.00 | 65 | 1016.6 |
| 20260510144517 | 88 | 253 | 3.0 | 6.0 | 0.00 | 0.03 | 0.00 | 63 | 1016.5 |
| 20260510143519 | 88 | 217 | 2.0 | 5.0 | 0.00 | 0.03 | 0.00 | 63 | 1016.5 |
| 20260510142517 | 86 | 271 | 2.0 | 3.0 | 0.00 | 0.03 | 0.00 | 66 | 1016.4 |
| 20260510141518 | 85 | 226 | 2.0 | 5.0 | 0.00 | 0.03 | 0.00 | 68 | 1016.4 |
| 20260510140517 | 84 | 204 | 2.0 | 4.0 | 0.00 | 0.03 | 0.00 | 70 | 1016.5 |
| 20260510135517 | 83 | 247 | 1.0 | 3.0 | 0.00 | 0.03 | 0.00 | 73 | 1016.6 |
| 20260510134540 | 82 | 271 | 1.0 | 2.0 | 0.00 | 0.03 | 0.00 | 75 | 1016.4 |
| 20260510133519 | 81 | 218 | 1.0 | 2.0 | 0.00 | 0.03 | 0.00 | 75 | 1016.3 |
| 20260510132518 | 81 | 222 | 1.0 | 3.0 | 0.00 | 0.03 | 0.00 | 77 | 1016.2 |
| 20260510131518 | 80 | 234 | 1.0 | 3.0 | 0.00 | 0.03 | 0.00 | 78 | 1016.2 |
| 20260510130540 | 80 | 222 | 2.0 | 3.0 | 0.00 | 0.03 | 0.00 | 79 | 1016.1 |
| 20260510125536 | 80 | 216 | 1.0 | 2.0 | 0.00 | 0.03 | 0.00 | 79 | 1016.0 |
| 20260510124536 | 80 | 218 | 1.0 | 4.0 | 0.00 | 0.03 | 0.00 | 80 | 1015.9 |
| 20260510123521 | 79 | 210 | 0.0 | 3.0 | 0.00 | 0.03 | 0.00 | 81 | 1015.8 |
| 20260510122516 | 78 | 147 | 1.0 | 2.0 | 0.00 | 0.03 | 0.00 | 83 | 1015.7 |
| 20260510121521 | 77 | 172 | 2.0 | 2.0 | 0.00 | 0.03 | 0.00 | 86 | 1015.7 |
| 20260510120604 | 76 | 176 | 2.0 | 4.0 | 0.00 | 0.03 | 0.00 | 89 | 1015.5 |
| 20260510115525 | 75 | 149 | 2.0 | 3.0 | 0.00 | 0.03 | 0.00 | 91 | 1015.3 |
| 20260510114523 | 74 | 143 | 1.0 | 1.0 | 0.00 | 0.03 | 0.00 | 92 | 1015.1 |
| 20260510113524 | 74 | 144 | 2.0 | 3.0 | 0.00 | 0.03 | 0.00 | 93 | 1015.0 |
| 20260510112522 | 73 | 186 | 0.0 | 1.0 | 0.00 | 0.03 | 0.00 | 93 | 1015.1 |
| 20260510111523 | 73 | 0.0 | 0.0 | 0.00 | 0.03 | 0.00 | 93 | 1014.9 | |
| 20260510110524 | 73 | 173 | 1.0 | 1.0 | 0.00 | 0.03 | 0.00 | 93 | 1014.8 |
| 20260510105524 | 73 | 172 | 0.0 | 0.0 | 0.00 | 0.03 | 0.00 | 94 | 1014.7 |
| 20260510104525 | 73 | 212 | 0.0 | 1.0 | 0.00 | 0.03 | 0.00 | 94 | 1014.5 |
| 20260510103603 | 72 | 210 | 0.0 | 1.0 | 0.00 | 0.03 | 0.00 | 94 | 1014.4 |
| 20260510102525 | 73 | 56 | 0.0 | 1.0 | 0.00 | 0.03 | 0.00 | 93 | 1014.0 |
| 20260510101524 | 73 | 49 | 0.0 | 0.0 | 0.00 | 0.03 | 0.00 | 93 | 1013.9 |
| 20260510100525 | 73 | 212 | 0.0 | 1.0 | 0.00 | 0.03 | 0.00 | 93 | 1013.8 |
| 20260510095524 | 73 | 0.0 | 0.0 | 0.00 | 0.03 | 0.00 | 93 | 1013.8 | |
| 20260510094524 | 73 | 0.0 | 0.0 | 0.00 | 0.03 | 0.00 | 92 | 1013.7 | |
| 20260510093545 | 73 | 0.0 | 0.0 | 0.00 | 0.03 | 0.00 | 92 | 1013.7 | |
| 20260510092526 | 73 | 112 | 0.0 | 1.0 | 0.00 | 0.03 | 0.00 | 92 | 1013.7 |
| 20260510091525 | 73 | 105 | 0.0 | 1.0 | 0.00 | 0.03 | 0.00 | 92 | 1013.6 |
| 20260510090525 | 73 | 0.0 | 0.0 | 0.00 | 0.03 | 0.00 | 92 | 1013.5 | |
| 20260510085525 | 73 | 202 | 1.0 | 1.0 | 0.00 | 0.03 | 0.00 | 91 | 1013.4 |
| 20260510084526 | 73 | 54 | 1.0 | 1.0 | 0.00 | 0.03 | 0.00 | 91 | 1013.4 |
| 20260510083545 | 73 | 139 | 0.0 | 1.0 | 0.00 | 0.03 | 0.00 | 91 | 1013.5 |
| 20260510082525 | 73 | 148 | 0.0 | 1.0 | 0.00 | 0.03 | 0.00 | 91 | 1013.6 |
| 20260510081526 | 73 | 208 | 0.0 | 1.0 | 0.00 | 0.03 | 0.00 | 91 | 1013.6 |
| 20260510080547 | 73 | 0.0 | 0.0 | 0.00 | 0.03 | 0.00 | 91 | 1013.5 | |
| 20260510075526 | 73 | 0.0 | 0.0 | 0.00 | 0.03 | 0.00 | 91 | 1013.4 | |
| 20260510074532 | 73 | 208 | 0.0 | 0.0 | 0.00 | 0.03 | 0.00 | 91 | 1013.7 |
| 20260510073530 | 73 | 274 | 0.0 | 0.0 | 0.00 | 0.03 | 0.00 | 91 | 1013.6 |
| 20260510072547 | 73 | 186 | 1.0 | 1.0 | 0.00 | 0.03 | 0.00 | 91 | 1013.7 |
| 20260510071528 | 73 | 0.0 | 0.0 | 0.00 | 0.03 | 0.00 | 91 | 1013.8 | |
| 20260510070647 | 73 | 130 | 0.0 | 1.0 | 0.00 | 0.03 | 0.00 | 91 | 1013.9 |
| 20260510065530 | 73 | 0.0 | 0.0 | 0.00 | 0.03 | 0.00 | 91 | 1014.0 | |
| 20260510064530 | 73 | 281 | 0.0 | 1.0 | 0.00 | 0.03 | 0.00 | 91 | 1014.1 |
| 20260510063527 | 73 | 0.0 | 0.0 | 0.00 | 0.03 | 0.00 | 91 | 1014.2 | |
| 20260510062528 | 73 | 317 | 0.0 | 1.0 | 0.00 | 0.03 | 0.00 | 91 | 1014.3 |
| 20260510061528 | 73 | 317 | 0.0 | 1.0 | 0.00 | 0.03 | 0.00 | 91 | 1014.3 |
| 20260510060549 | 73 | 0.0 | 0.0 | 0.00 | 0.03 | 0.00 | 90 | 1014.3 | |
| 20260510055528 | 73 | 221 | 0.0 | 0.0 | 0.00 | 0.03 | 0.00 | 90 | 1014.2 |
| 20260510054529 | 74 | 49 | 0.0 | 1.0 | 0.00 | 0.03 | 0.00 | 89 | 1014.4 |
| 20260510053529 | 74 | 211 | 0.0 | 1.0 | 0.00 | 0.03 | 0.00 | 90 | 1014.6 |
| 20260510052528 | 74 | 0.0 | 0.0 | 0.00 | 0.03 | 0.00 | 90 | 1014.7 | |
| 20260510051529 | 74 | 0.0 | 0.0 | 0.00 | 0.03 | 0.00 | 89 | 1014.7 | |
| 20260510050530 | 74 | 69 | 0.0 | 1.0 | 0.00 | 0.03 | 0.00 | 89 | 1014.7 |
| 20260510045529 | 74 | 0.0 | 0.0 | 0.00 | 0.03 | 0.00 | 89 | 1014.8 | |
| 20260510044550 | 74 | 0.0 | 0.0 | 0.00 | 0.03 | 0.00 | 89 | 1014.9 | |
| 20260510043530 | 74 | 0.0 | 0.0 | 0.00 | 0.03 | 0.00 | 89 | 1014.9 | |
| 20260510042530 | 74 | 76 | 0.0 | 1.0 | 0.00 | 0.03 | 0.00 | 88 | 1015.0 |
| 20260510041515 | 75 | 156 | 0.0 | 1.0 | 0.00 | 0.03 | 0.00 | 88 | 1015.0 |
| 20260510040530 | 75 | 0.0 | 0.0 | 0.00 | 0.03 | 0.00 | 88 | 1015.0 | |
| 20260510035536 | 75 | 50 | 1.0 | 1.0 | 0.00 | 0.03 | 0.03 | 88 | 1015.0 |
| 20260510034515 | 75 | 0.0 | 0.0 | 0.00 | 0.03 | 0.03 | 87 | 1015.0 | |
| 20260510033516 | 75 | 104 | 0.0 | 1.0 | 0.00 | 0.03 | 0.03 | 87 | 1015.1 |
| 20260510032516 | 75 | 43 | 1.0 | 1.0 | 0.00 | 0.03 | 0.03 | 86 | 1015.0 |
| 20260510031517 | 75 | 101 | 1.0 | 2.0 | 0.00 | 0.03 | 0.03 | 86 | 1014.8 |
| 20260510030516 | 76 | 10 | 0.0 | 1.0 | 0.00 | 0.03 | 0.03 | 86 | 1014.8 |
| 20260510025537 | 76 | 31 | 2.0 | 2.0 | 0.00 | 0.03 | 0.03 | 85 | 1014.9 |
| 20260510024517 | 76 | 14 | 1.0 | 2.0 | 0.00 | 0.03 | 0.03 | 85 | 1014.9 |
| 20260510023518 | 76 | 95 | 1.0 | 2.0 | 0.00 | 0.03 | 0.03 | 85 | 1014.9 |
| 20260510022517 | 76 | 37 | 1.0 | 2.0 | 0.00 | 0.03 | 0.03 | 85 | 1014.9 |
| 20260510021518 | 76 | 102 | 1.0 | 3.0 | 0.00 | 0.03 | 0.03 | 86 | 1014.7 |
| 20260510020518 | 76 | 201 | 1.0 | 3.0 | 0.00 | 0.03 | 0.03 | 86 | 1014.6 |
| 20260510015535 | 76 | 95 | 1.0 | 3.0 | 0.00 | 0.03 | 0.03 | 86 | 1014.5 |
| 20260510014515 | 77 | 342 | 1.0 | 2.0 | 0.00 | 0.03 | 0.03 | 85 | 1014.3 |
| 20260510013517 | 77 | 112 | 1.0 | 2.0 | 0.00 | 0.03 | 0.03 | 85 | 1014.3 |
| 20260510012516 | 77 | 70 | 2.0 | 4.0 | 0.00 | 0.03 | 0.03 | 84 | 1014.2 |
| 20260510011516 | 77 | 61 | 2.0 | 3.0 | 0.00 | 0.03 | 0.03 | 84 | 1014.3 |
| 20260510010516 | 77 | 27 | 1.0 | 3.0 | 0.00 | 0.03 | 0.03 | 83 | 1014.2 |
| 20260510005517 | 78 | 33 | 1.0 | 4.0 | 0.00 | 0.03 | 0.03 | 82 | 1014.0 |
| 20260510004516 | 78 | 43 | 2.0 | 3.0 | 0.00 | 0.03 | 0.03 | 82 | 1013.8 |
| 20260510003517 | 78 | 232 | 1.0 | 2.0 | 0.00 | 0.03 | 0.03 | 82 | 1013.6 |
| 20260510002517 | 79 | 48 | 3.0 | 6.0 | 0.00 | 0.03 | 0.03 | 81 | 1013.5 |
| 20260510001516 | 80 | 96 | 1.0 | 3.0 | 0.00 | 0.03 | 0.03 | 80 | 1013.5 |
| 20260510000517 | 80 | 55 | 2.0 | 6.0 | 0.00 | 0.03 | 0.03 | 78 | 1013.2 |
| 20260509235517 | 80 | 40 | 3.0 | 6.0 | 0.00 | 0.03 | 0.03 | 78 | 1013.0 |
| 20260509234517 | 81 | 12 | 3.0 | 6.0 | 0.00 | 0.03 | 0.03 | 77 | 1012.7 |
| 20260509233519 | 81 | 60 | 2.0 | 4.0 | 0.00 | 0.03 | 0.03 | 77 | 1012.7 |
| 20260509232518 | 82 | 16 | 3.0 | 6.0 | 0.00 | 0.03 | 0.03 | 76 | 1012.6 |
| 20260509231518 | 84 | 20 | 3.0 | 5.0 | 0.00 | 0.03 | 0.03 | 74 | 1012.6 |